Time;durP1;ratioP1;P1;durP2;ratioP2;P2;SDS_P1;SDS_P2;PMS_P1;PMS_P2;Temp;Humidity;BMP_temperature;BMP_pressure;BME280_temperature;BME280_humidity;BME280_pressure;Samples;Min_cycle;Max_cycle;Signal;HPM_P1;HPM_P2
2022/09/07 00:01:01;;;;;;;6.18;4.13;;;;;;;18.08;76.97;101194.19;5048290;28;20468;-76
2022/09/07 00:03:27;;;;;;;5.60;3.58;;;;;;;18.05;78.30;101172.34;5045896;28;20025;-76
2022/09/07 00:05:53;;;;;;;5.78;3.95;;;;;;;18.03;76.84;101176.81;5045671;28;20392;-77
2022/09/07 00:08:20;;;;;;;5.55;3.95;;;;;;;17.97;77.20;101189.44;5049847;28;20017;-76
2022/09/07 00:10:55;;;;;;;5.80;3.45;;;;;;;17.92;77.27;101191.44;5048573;28;20035;-76
2022/09/07 00:13:21;;;;;;;5.13;3.08;;;;;;;17.91;77.21;101195.88;5049809;28;20021;-76
2022/09/07 00:15:46;;;;;;;5.25;3.08;;;;;;;17.89;77.44;101193.28;5051345;28;20127;-76
2022/09/07 00:18:11;;;;;;;3.75;2.78;;;;;;;17.88;77.42;101191.59;5051094;28;20068;-76
2022/09/07 00:20:36;;;;;;;4.88;3.20;;;;;;;17.86;76.88;101197.88;5046672;28;20392;-76
2022/09/07 00:23:02;;;;;;;4.80;2.78;;;;;;;17.80;76.91;101183.25;5053072;28;20029;-76
2022/09/07 00:25:27;;;;;;;5.45;3.28;;;;;;;17.73;77.59;101169.56;5050798;28;20354;-76
2022/09/07 00:27:52;;;;;;;4.28;3.08;;;;;;;17.71;77.88;101167.91;5047940;28;20040;-77
2022/09/07 00:30:18;;;;;;;4.75;3.22;;;;;;;17.66;77.61;101170.78;5035539;28;20476;-76
2022/09/07 00:32:43;;;;;;;4.07;3.20;;;;;;;17.62;77.91;101166.59;5052730;28;20056;-76
2022/09/07 00:35:08;;;;;;;4.50;3.40;;;;;;;17.56;78.09;101159.88;5044706;28;20029;-77
2022/09/07 00:37:34;;;;;;;4.90;3.50;;;;;;;17.52;78.14;101160.09;5040561;28;20029;-76
2022/09/07 00:39:59;;;;;;;5.30;3.45;;;;;;;17.46;78.39;101169.16;5043171;28;20109;-76
2022/09/07 00:42:24;;;;;;;5.10;3.40;;;;;;;17.41;78.81;101156.25;5033285;28;20033;-77
2022/09/07 00:44:58;;;;;;;5.07;3.28;;;;;;;17.37;78.76;101148.56;5032778;28;20388;-76
2022/09/07 00:47:33;;;;;;;5.05;3.38;;;;;;;17.32;78.43;101146.16;5036500;28;20039;-76
2022/09/07 00:50:10;;;;;;;5.75;3.33;;;;;;;17.28;79.33;101144.59;5050905;28;20034;-76
2022/09/07 00:52:38;;;;;;;5.20;3.35;;;;;;;17.26;78.98;101142.06;5049021;28;20044;-76
2022/09/07 00:55:08;;;;;;;4.72;3.08;;;;;;;17.22;79.20;101134.41;5052600;28;20044;-76
2022/09/07 00:57:35;;;;;;;4.60;3.00;;;;;;;17.19;79.01;101129.28;5050330;28;20029;-76
2022/09/07 01:00:01;;;;;;;4.38;3.03;;;;;;;17.12;78.93;101134.84;5051527;28;20117;-76
2022/09/07 01:02:27;;;;;;;4.90;2.92;;;;;;;17.07;79.29;101142.13;5036837;28;20022;-76
2022/09/07 01:05:02;;;;;;;5.60;3.10;;;;;;;17.05;79.17;101143.97;5032256;28;20029;-76
2022/09/07 01:07:27;;;;;;;5.30;2.83;;;;;;;17.03;79.46;101139.69;5033948;28;20026;-76
2022/09/07 01:09:54;;;;;;;4.78;3.17;;;;;;;17.03;79.84;101135.28;5052447;28;20052;-76
2022/09/07 01:12:19;;;;;;;4.70;3.10;;;;;;;17.00;80.44;101143.31;5051177;28;20032;-76
2022/09/07 01:14:50;;;;;;;3.65;2.53;;;;;;;16.98;79.98;101132.91;5052540;28;20035;-76
2022/09/07 01:17:34;;;;;;;5.00;2.95;;;;;;;16.95;79.76;101130.41;5049134;28;20041;-76
2022/09/07 01:20:11;;;;;;;3.55;2.35;;;;;;;16.91;79.73;101122.72;5033456;28;20112;-76
2022/09/07 01:22:54;;;;;;;5.30;2.47;;;;;;;16.91;79.25;101125.34;5044611;28;20039;-76
2022/09/07 01:25:35;;;;;;;4.25;2.50;;;;;;;16.91;80.29;101127.97;5038755;28;20029;-76
2022/09/07 01:28:16;;;;;;;3.55;2.50;;;;;;;16.87;79.67;101129.88;5050391;28;20096;-76
2022/09/07 01:30:51;;;;;;;3.95;2.55;;;;;;;16.84;80.32;101136.13;5055223;28;20040;-76
2022/09/07 01:33:52;;;;;;;4.85;2.78;;;;;;;16.82;80.07;101143.25;5051848;28;20480;-76
2022/09/07 01:36:23;;;;;;;3.58;2.22;;;;;;;16.82;80.67;101145.88;5025516;28;20041;-76
2022/09/07 01:38:52;;;;;;;;;;;;;;;16.88;77.12;101149.13;5047274;28;20025;-76
2022/09/07 01:41:28;;;;;;;3.08;2.15;;;;;;;16.82;79.79;101147.66;5035669;28;19909;-76
2022/09/07 01:44:16;;;;;;;3.22;2.30;;;;;;;16.79;79.94;101151.25;5054711;28;20075;-76
2022/09/07 01:46:50;;;;;;;4.28;2.75;;;;;;;16.80;80.51;101146.88;5047715;28;20025;-76
2022/09/07 01:49:21;;;;;;;3.58;2.58;;;;;;;16.76;80.40;101146.16;5045597;28;20029;-76
2022/09/07 01:51:51;;;;;;;4.72;2.67;;;;;;;16.73;80.43;101143.69;5035180;28;20029;-76
2022/09/07 01:54:25;;;;;;;3.92;2.45;;;;;;;16.73;80.20;101137.56;5042625;28;20377;-76
2022/09/07 01:56:56;;;;;;;4.18;2.40;;;;;;;16.70;80.53;101133.31;5055634;28;20029;-76
2022/09/07 01:59:29;;;;;;;6.05;2.63;;;;;;;16.69;80.38;101127.19;5054131;28;20153;-76
2022/09/07 02:01:57;;;;;;;3.78;2.35;;;;;;;16.67;80.60;101133.47;5046976;28;20037;-76
2022/09/07 02:04:30;;;;;;;3.67;2.20;;;;;;;16.65;79.87;101143.19;5048764;28;20044;-76
2022/09/07 02:07:19;;;;;;;3.72;2.33;;;;;;;16.65;80.24;101135.31;5055456;28;20029;-76
2022/09/07 02:09:56;;;;;;;4.13;2.40;;;;;;;16.65;79.78;101124.78;5029493;28;20044;-76
2022/09/07 02:13:03;;;;;;;3.13;2.08;;;;;;;16.65;80.04;101135.31;5035804;28;20127;-76
2022/09/07 02:15:43;;;;;;;2.97;2.00;;;;;;;16.65;80.60;101130.88;5035382;28;20075;-76
2022/09/07 02:18:12;;;;;;;2.78;2.00;;;;;;;16.64;80.74;101141.47;5039221;28;20029;-76
2022/09/07 02:20:42;;;;;;;4.15;2.25;;;;;;;16.63;80.08;101147.66;5054368;28;20108;-76
2022/09/07 02:23:20;;;;;;;3.85;2.20;;;;;;;16.62;80.43;101138.06;5052719;28;20082;-76
2022/09/07 02:25:53;;;;;;;3.28;2.13;;;;;;;16.62;81.13;101140.69;5048475;28;20032;-76
2022/09/07 02:28:27;;;;;;;3.35;2.13;;;;;;;16.59;80.84;101141.69;5037649;28;20037;-76
2022/09/07 02:30:52;;;;;;;2.78;1.92;;;;;;;16.60;81.24;101132.03;5055195;28;20041;-76
2022/09/07 02:33:18;;;;;;;3.55;2.05;;;;;;;16.58;80.79;101124.22;5048655;28;20487;-76
2022/09/07 02:35:44;;;;;;;2.92;2.22;;;;;;;16.54;80.96;101115.66;5048097;28;20036;-76
2022/09/07 02:38:09;;;;;;;3.30;2.08;;;;;;;16.52;81.26;101119.25;5046691;28;20028;-76
2022/09/07 02:40:34;;;;;;;3.63;2.30;;;;;;;16.52;81.40;101119.25;5053223;28;20036;-76
2022/09/07 02:43:04;;;;;;;3.08;2.45;;;;;;;16.51;81.46;101128.91;5050292;28;20551;-76
2022/09/07 02:45:43;;;;;;;3.00;2.40;;;;;;;16.51;81.50;101144.69;5047107;28;20022;-76
2022/09/07 02:48:34;;;;;;;3.28;2.30;;;;;;;16.46;80.23;101151.06;5035579;28;20021;-76
2022/09/07 02:51:11;;;;;;;3.10;2.30;;;;;;;16.41;80.37;101146.00;5034939;28;20034;-76
2022/09/07 02:54:07;;;;;;;3.25;2.20;;;;;;;16.42;79.92;101139.84;5033743;28;20043;-76
2022/09/07 02:56:54;;;;;;;3.47;2.50;;;;;;;16.40;80.04;101133.78;5029629;28;20045;-76
2022/09/07 02:59:44;;;;;;;3.35;2.50;;;;;;;16.37;80.42;101126.91;5036888;28;20070;-76
2022/09/07 03:02:22;;;;;;;3.20;2.33;;;;;;;16.35;81.07;101114.78;5034697;28;20025;-76
2022/09/07 03:05:02;;;;;;;4.00;2.10;;;;;;;16.34;81.09;101120.97;5042946;28;20051;-76
2022/09/07 03:07:33;;;;;;;6.05;2.38;;;;;;;16.31;81.05;101115.84;5054209;28;20082;-76
2022/09/07 03:10:01;;;;;;;3.97;2.47;;;;;;;16.28;81.20;101124.72;5043638;28;20533;-76
2022/09/07 03:12:41;;;;;;;3.20;2.42;;;;;;;16.27;81.59;101119.53;5042613;28;20040;-76
2022/09/07 03:15:09;;;;;;;3.72;2.50;;;;;;;16.24;82.52;101110.88;5046687;28;20538;-76
2022/09/07 03:17:35;;;;;;;5.22;2.78;;;;;;;16.28;82.38;101110.72;5040563;28;20105;-76
2022/09/07 03:20:00;;;;;;;3.83;2.80;;;;;;;16.31;82.52;101107.97;5045048;28;20055;-76
2022/09/07 03:22:25;;;;;;;4.57;2.85;;;;;;;16.31;82.57;101095.69;5034331;28;20037;-76
2022/09/07 03:24:51;;;;;;;5.13;2.83;;;;;;;16.32;nan;101100.00;5039059;28;20047;-76
2022/09/07 03:27:16;;;;;;;5.05;2.80;;;;;;;16.33;82.48;101096.47;5047961;28;20024;-76
2022/09/07 03:29:41;;;;;;;5.13;2.95;;;;;;;16.34;82.32;101095.53;5035091;28;20472;-76
2022/09/07 03:32:07;;;;;;;4.68;3.00;;;;;;;16.36;82.51;101103.38;5037685;28;20181;-76
2022/09/07 03:34:32;;;;;;;7.60;3.00;;;;;;;16.35;82.18;101117.41;5037325;28;20483;-76
2022/09/07 03:36:57;;;;;;;4.07;3.15;;;;;;;16.33;81.96;101112.22;5045619;28;20034;-76
2022/09/07 03:39:25;;;;;;;4.55;3.10;;;;;;;16.33;82.28;101114.00;5050080;28;20025;-76
2022/09/07 03:41:50;;;;;;;5.88;3.47;;;;;;;16.31;82.28;101118.47;5049472;28;20055;-76
2022/09/07 03:44:15;;;;;;;5.43;3.03;;;;;;;16.31;81.93;101116.69;5049446;28;20028;-76
2022/09/07 03:46:41;;;;;;;3.97;3.28;;;;;;;16.31;82.08;101110.59;5039207;28;20030;-76
2022/09/07 03:49:06;;;;;;;5.72;2.85;;;;;;;16.31;81.94;101107.97;5031603;28;20071;-76
2022/09/07 03:51:31;;;;;;;6.88;3.20;;;;;;;16.30;81.74;101109.75;5027593;28;20021;-76
2022/09/07 03:53:58;;;;;;;4.95;3.15;;;;;;;16.26;81.58;101112.56;5042735;28;20022;-76
2022/09/07 03:56:24;;;;;;;4.57;3.30;;;;;;;16.21;82.21;101124.16;5035946;28;20044;-76
2022/09/07 03:58:50;;;;;;;5.82;3.30;;;;;;;16.21;82.39;101123.28;5034610;28;20472;-76
2022/09/07 04:01:19;;;;;;;5.50;3.40;;;;;;;16.20;82.69;101122.44;5042152;28;20060;-76
2022/09/07 04:03:46;;;;;;;3.90;3.15;;;;;;;16.22;83.07;101120.59;5040370;28;20032;-76
2022/09/07 04:06:12;;;;;;;5.85;3.28;;;;;;;16.24;83.00;101126.63;5035254;28;20028;-76
2022/09/07 04:08:39;;;;;;;4.70;3.15;;;;;;;16.25;82.42;101111.72;5039295;28;20088;-76
2022/09/07 04:11:06;;;;;;;5.88;3.60;;;;;;;16.26;83.11;101104.69;5039162;28;20376;-77
2022/09/07 04:13:33;;;;;;;8.88;3.67;;;;;;;16.28;83.23;101105.47;5046001;28;20108;-76
2022/09/07 04:15:59;;;;;;;4.40;3.53;;;;;;;16.28;82.80;101106.34;5035418;28;20017;-76
2022/09/07 04:18:24;;;;;;;4.32;3.17;;;;;;;16.31;83.16;101094.84;5041961;28;20519;-76
2022/09/07 04:20:49;;;;;;;5.30;3.33;;;;;;;16.31;83.19;101090.44;5041705;28;20484;-76
2022/09/07 04:23:16;;;;;;;4.63;3.38;;;;;;;16.33;82.88;101082.50;5045043;28;20031;-76
2022/09/07 04:25:49;;;;;;;4.90;3.20;;;;;;;16.33;83.13;101070.22;5045830;28;20028;-76
2022/09/07 04:28:19;;;;;;;5.28;3.72;;;;;;;16.31;82.91;101065.97;5034162;28;20507;-76
2022/09/07 04:30:45;;;;;;;4.95;3.60;;;;;;;16.31;82.75;101064.19;5034727;28;20048;-75
2022/09/07 04:33:11;;;;;;;5.90;3.67;;;;;;;16.32;82.92;101075.53;5038560;28;20037;-76
2022/09/07 04:35:38;;;;;;;6.25;3.42;;;;;;;16.32;83.26;101070.28;5041222;28;20066;-76
2022/09/07 04:38:04;;;;;;;7.65;3.78;;;;;;;16.33;83.16;101077.25;5023637;28;20029;-76
2022/09/07 04:40:29;;;;;;;5.45;3.83;;;;;;;16.33;82.99;101082.50;5039051;28;20029;-76
2022/09/07 04:42:55;;;;;;;4.72;3.33;;;;;;;16.31;83.00;101090.44;5046093;28;20025;-76
2022/09/07 04:45:20;;;;;;;5.85;3.67;;;;;;;16.30;82.93;101101.88;5047738;28;20642;-76
2022/09/07 04:47:47;;;;;;;4.68;3.63;;;;;;;16.30;83.00;101094.00;5043906;28;20048;-76
2022/09/07 04:50:12;;;;;;;5.78;3.83;;;;;;;16.32;83.15;101091.28;5032278;28;20033;-76
2022/09/07 04:52:38;;;;;;;5.97;4.13;;;;;;;16.32;83.39;101086.03;5044004;28;20468;-76
2022/09/07 04:55:03;;;;;;;5.65;4.00;;;;;;;16.35;83.12;101096.41;5035073;28;20482;-76
2022/09/07 04:57:29;;;;;;;5.30;3.75;;;;;;;16.34;83.03;101085.03;5040480;28;20075;-75
2022/09/07 04:59:54;;;;;;;4.55;3.55;;;;;;;16.34;82.99;101090.28;5047921;28;20510;-76
2022/09/07 05:02:19;;;;;;;6.80;3.95;;;;;;;16.37;83.20;101105.06;5050668;28;20033;-76
2022/09/07 05:04:45;;;;;;;4.93;3.95;;;;;;;16.39;83.32;101119.81;5053208;28;20461;-76
2022/09/07 05:07:10;;;;;;;5.50;3.92;;;;;;;16.38;83.33;101105.00;5053246;28;20472;-76
2022/09/07 05:09:35;;;;;;;5.90;3.95;;;;;;;16.39;83.01;101100.59;5053634;28;20523;-76
2022/09/07 05:12:01;;;;;;;4.60;3.97;;;;;;;16.39;83.05;101100.59;5043898;28;20468;-76
2022/09/07 05:14:26;;;;;;;5.78;4.30;;;;;;;16.38;83.62;101099.75;5044091;28;20042;-76
2022/09/07 05:16:52;;;;;;;5.23;4.23;;;;;;;16.40;83.74;101094.41;5047572;28;20052;-76
2022/09/07 05:19:17;;;;;;;5.75;4.20;;;;;;;16.42;83.67;101089.94;5054987;28;20024;-76
2022/09/07 05:21:42;;;;;;;4.82;3.78;;;;;;;16.43;83.83;101096.06;5053225;28;20475;-76
2022/09/07 05:24:08;;;;;;;7.43;4.53;;;;;;;16.44;84.09;101095.97;5048352;28;20517;-76
2022/09/07 05:26:35;;;;;;;6.05;4.13;;;;;;;16.44;84.04;101095.97;5046008;28;20473;-76
2022/09/07 05:29:03;;;;;;;7.65;4.47;;;;;;;16.45;84.20;101097.69;5036291;28;20048;-76
2022/09/07 05:31:29;;;;;;;6.18;4.32;;;;;;;16.46;83.87;101104.63;5038814;28;20045;-76
2022/09/07 05:33:58;;;;;;;6.13;4.40;;;;;;;16.46;83.67;101109.88;5045368;28;20513;-76
2022/09/07 05:36:27;;;;;;;6.70;4.53;;;;;;;16.48;83.85;101102.78;5045070;28;20047;-76
2022/09/07 05:38:53;;;;;;;5.22;4.15;;;;;;;16.48;83.92;101101.97;5052717;28;20083;-76
2022/09/07 05:41:20;;;;;;;6.05;5.00;;;;;;;16.47;83.86;101106.34;5035621;28;20056;-76
2022/09/07 05:43:46;;;;;;;6.70;4.50;;;;;;;16.48;84.11;101102.78;5047280;28;20041;-76
2022/09/07 05:46:13;;;;;;;8.10;4.53;;;;;;;16.51;84.14;101101.78;5049911;28;20017;-76
2022/09/07 05:48:38;;;;;;;6.78;4.50;;;;;;;16.52;84.38;101101.75;5051859;28;20074;-76
2022/09/07 05:51:04;;;;;;;6.88;5.00;;;;;;;16.53;84.19;101106.06;5043443;28;20041;-76
2022/09/07 05:53:32;;;;;;;5.88;4.75;;;;;;;16.53;84.27;101100.81;5045197;28;20036;-77
2022/09/07 05:55:59;;;;;;;9.00;5.03;;;;;;;16.56;84.33;101105.06;5036293;28;20033;-76
2022/09/07 05:58:25;;;;;;;7.13;5.00;;;;;;;16.56;84.09;101106.84;5037123;28;20036;-76
2022/09/07 06:00:50;;;;;;;8.05;5.28;;;;;;;16.58;84.28;101107.59;5038574;28;20123;-77
2022/09/07 06:03:16;;;;;;;7.07;5.30;;;;;;;16.59;83.87;101104.91;5044756;28;20496;-76
2022/09/07 06:05:41;;;;;;;7.00;5.35;;;;;;;16.61;84.47;101113.59;5043836;28;20578;-76
2022/09/07 06:08:06;;;;;;;7.45;5.20;;;;;;;16.62;84.36;101114.44;5041079;28;20037;-76
2022/09/07 06:10:36;;;;;;;6.45;5.07;;;;;;;16.60;84.29;101111.00;5041358;28;20026;-76
2022/09/07 06:13:02;;;;;;;7.88;4.63;;;;;;;16.59;84.69;101112.81;5041860;28;20541;-76
2022/09/07 06:15:27;;;;;;;7.95;5.43;;;;;;;16.59;84.38;101109.31;5050051;28;20036;-76
2022/09/07 06:17:52;;;;;;;7.93;5.30;;;;;;;16.57;84.46;101108.56;5048584;28;20373;-76
2022/09/07 06:20:18;;;;;;;7.13;5.40;;;;;;;16.56;84.13;101112.09;5046787;28;20055;-76
2022/09/07 06:22:43;;;;;;;7.60;5.50;;;;;;;16.58;84.40;101115.47;5044666;28;20033;-77
2022/09/07 06:25:08;;;;;;;8.52;5.32;;;;;;;16.59;84.82;101119.81;5044466;28;20021;-76
2022/09/07 06:27:34;;;;;;;7.00;5.40;;;;;;;16.59;84.28;101119.81;5048843;28;20016;-76
2022/09/07 06:29:59;;;;;;;7.45;5.57;;;;;;;16.60;84.35;101124.16;5037545;28;20029;-76
2022/09/07 06:32:24;;;;;;;8.40;5.38;;;;;;;16.60;84.64;101125.00;5046210;28;20053;-76
2022/09/07 06:34:49;;;;;;;8.10;5.70;;;;;;;16.63;84.31;101134.53;5052617;28;20057;-76
2022/09/07 06:37:15;;;;;;;8.13;5.47;;;;;;;16.66;84.18;101137.00;5023984;28;20033;-77
2022/09/07 06:39:41;;;;;;;7.45;6.00;;;;;;;16.66;84.43;101131.75;5034440;28;20024;-76
2022/09/07 06:42:06;;;;;;;8.63;5.47;;;;;;;16.71;84.32;101134.16;5037773;28;20029;-76
2022/09/07 06:44:31;;;;;;;7.72;5.68;;;;;;;16.75;84.40;101139.19;5044824;28;20463;-76
2022/09/07 06:46:57;;;;;;;8.35;5.40;;;;;;;16.78;84.21;101146.94;5041888;28;20032;-76
2022/09/07 06:49:23;;;;;;;8.40;5.95;;;;;;;16.81;83.45;101148.59;5044756;28;20033;-76
2022/09/07 06:51:49;;;;;;;9.50;5.72;;;;;;;16.83;83.59;101150.19;5040694;28;20025;-76
2022/09/07 06:54:14;;;;;;;8.45;5.95;;;;;;;16.83;83.81;101144.94;5040933;28;20040;-76
2022/09/07 06:56:40;;;;;;;8.02;6.00;;;;;;;16.84;83.97;101146.66;5037686;28;20045;-76
2022/09/07 06:59:05;;;;;;;7.60;6.30;;;;;;;16.86;84.38;101151.81;5035857;28;20025;-76
2022/09/07 07:01:32;;;;;;;10.23;6.75;;;;;;;16.84;83.91;101151.91;5036670;28;20131;-76
2022/09/07 07:03:58;;;;;;;9.05;6.85;;;;;;;16.86;84.90;101151.81;5042331;28;20065;-76
2022/09/07 07:06:32;;;;;;;11.60;7.50;;;;;;;16.92;84.68;101148.03;5041173;28;20566;-77
2022/09/07 07:08:57;;;;;;;9.75;7.78;;;;;;;16.98;84.60;101147.78;5045898;28;20028;-76
2022/09/07 07:11:22;;;;;;;12.32;8.02;;;;;;;17.05;85.44;101149.22;5045145;28;20026;-76
2022/09/07 07:13:48;;;;;;;14.35;9.00;;;;;;;17.12;85.08;101155.03;5052100;28;20107;-76
2022/09/07 07:16:15;;;;;;;12.90;9.20;;;;;;;17.13;84.42;101157.56;5054690;28;20048;-76
2022/09/07 07:18:42;;;;;;;14.30;9.35;;;;;;;17.13;84.67;101157.56;5048243;28;20036;-76
2022/09/07 07:21:12;;;;;;;14.40;9.93;;;;;;;17.12;84.48;101152.41;5039576;28;20028;-76
2022/09/07 07:23:39;;;;;;;14.23;10.15;;;;;;;17.11;84.68;101151.53;5036773;28;20048;-76
2022/09/07 07:26:12;;;;;;;13.85;10.00;;;;;;;17.12;85.00;101147.97;5035583;28;20029;-76
2022/09/07 07:28:38;;;;;;;16.15;11.10;;;;;;;17.19;85.70;101139.81;5036142;28;20388;-76
2022/09/07 07:31:05;;;;;;;15.52;11.75;;;;;;;17.24;85.04;101146.53;5024987;28;20047;-76
2022/09/07 07:33:34;;;;;;;17.00;12.32;;;;;;;17.34;85.01;101146.94;5042947;28;20016;-76
2022/09/07 07:36:26;;;;;;;20.40;13.07;;;;;;;17.45;84.78;101147.25;5036566;28;20038;-77
2022/09/07 07:38:54;;;;;;;19.33;13.40;;;;;;;17.53;84.55;101148.66;5034079;28;20558;-77
2022/09/07 07:41:22;;;;;;;20.83;14.23;;;;;;;17.62;84.72;101155.22;5055514;28;20103;-77
2022/09/07 07:43:52;;;;;;;21.88;13.70;;;;;;;17.70;85.10;101166.22;5051192;28;20033;-76
2022/09/07 07:46:17;;;;;;;24.57;15.40;;;;;;;17.77;84.02;101161.47;5036533;28;20033;-76
2022/09/07 07:48:46;;;;;;;21.13;14.93;;;;;;;17.80;83.62;101156.06;5032362;28;20409;-76
2022/09/07 07:51:11;;;;;;;22.00;14.68;;;;;;;17.82;83.54;101164.72;5036643;28;20048;-76
2022/09/07 07:53:38;;;;;;;21.25;14.43;;;;;;;17.86;83.84;101166.28;5037518;28;20173;-76
2022/09/07 07:56:05;;;;;;;20.42;14.38;;;;;;;17.86;82.64;101167.13;5036994;28;20243;-76
2022/09/07 07:58:32;;;;;;;22.05;15.07;;;;;;;17.93;82.60;101170.31;5030327;28;20029;-77
2022/09/07 08:01:02;;;;;;;19.17;14.57;;;;;;;18.03;82.28;101170.69;5029493;28;20029;-77
2022/09/07 08:03:27;;;;;;;20.20;14.23;;;;;;;18.13;82.07;101171.06;5031329;28;20040;-75
2022/09/07 08:05:54;;;;;;;19.42;14.40;;;;;;;18.20;81.86;101167.19;5033684;28;20388;-76
2022/09/07 08:08:22;;;;;;;18.65;14.20;;;;;;;18.26;81.63;101166.88;5035901;28;20021;-75
2022/09/07 08:10:47;;;;;;;20.48;13.98;;;;;;;18.34;81.99;101174.38;5035897;28;20025;-77
2022/09/07 08:13:13;;;;;;;19.73;14.05;;;;;;;18.40;81.26;101167.91;5038822;28;20499;-76
2022/09/07 08:15:45;;;;;;;18.50;13.52;;;;;;;18.44;80.53;101169.47;5040122;28;20029;-75
2022/09/07 08:18:12;;;;;;;21.13;14.43;;;;;;;18.46;81.01;101180.75;5041602;28;20032;-76
2022/09/07 08:20:39;;;;;;;19.13;14.55;;;;;;;18.48;80.31;101189.41;5037625;28;20178;-76
2022/09/07 08:23:06;;;;;;;19.02;12.95;;;;;;;18.47;80.03;101179.81;5042008;28;20498;-76
2022/09/07 08:25:31;;;;;;;19.52;14.38;;;;;;;18.47;79.88;101188.59;5032075;28;20033;-76
2022/09/07 08:27:57;;;;;;;18.85;14.15;;;;;;;18.51;80.99;101181.34;5043606;28;20393;-76
2022/09/07 08:30:22;;;;;;;19.48;13.77;;;;;;;18.58;81.15;101192.41;5036863;28;20029;-76
2022/09/07 08:32:47;;;;;;;21.38;14.02;;;;;;;18.63;80.30;101190.38;5042836;28;20444;-75
2022/09/07 08:35:12;;;;;;;18.65;14.10;;;;;;;18.68;79.84;101195.41;5032895;28;20055;-75
2022/09/07 08:37:38;;;;;;;18.77;13.38;;;;;;;18.73;79.47;101188.94;5034656;28;20052;-75
2022/09/07 08:40:03;;;;;;;18.50;14.77;;;;;;;18.78;78.44;101194.00;5034457;28;20123;-75
2022/09/07 08:43:04;;;;;;;19.98;13.95;;;;;;;18.80;79.41;101192.09;5038275;28;20075;-75
2022/09/07 08:45:40;;;;;;;19.95;13.45;;;;;;;18.84;79.11;101193.63;4963398;28;20532;-75
2022/09/07 08:48:08;;;;;;;15.45;12.45;;;;;;;18.83;77.68;101197.19;5028076;28;20037;-75
2022/09/07 08:50:42;;;;;;;15.88;11.80;;;;;;;18.86;77.86;101202.31;5021050;28;20091;-75
2022/09/07 08:53:18;;;;;;;17.00;11.50;;;;;;;18.91;76.79;101207.31;5044684;28;20044;-76
2022/09/07 08:56:00;;;;;;;15.50;11.18;;;;;;;18.94;76.69;101202.78;5036995;28;20535;-75
2022/09/07 08:58:42;;;;;;;16.80;11.27;;;;;;;18.98;77.07;101197.31;5037988;28;20025;-76
2022/09/07 09:01:11;;;;;;;14.15;10.98;;;;;;;19.01;76.56;101197.16;5041435;28;20021;-76
2022/09/07 09:03:36;;;;;;;15.68;11.10;;;;;;;19.06;76.96;101195.94;5036960;28;20041;-76
2022/09/07 09:06:21;;;;;;;16.20;11.13;;;;;;;19.16;76.84;101206.00;5041139;28;20108;-76
2022/09/07 09:08:56;;;;;;;15.18;10.98;;;;;;;19.21;75.69;101204.78;5033169;28;20025;-76
2022/09/07 09:11:36;;;;;;;16.75;10.98;;;;;;;19.25;75.10;101206.34;5034664;28;20396;-76
2022/09/07 09:14:20;;;;;;;15.23;10.63;;;;;;;19.26;75.45;101202.75;5036847;28;20025;-76
2022/09/07 09:16:52;;;;;;;17.88;9.77;;;;;;;19.29;74.92;101204.34;5040259;28;20747;-76
2022/09/07 09:19:43;;;;;;;15.55;10.27;;;;;;;19.35;74.31;101195.25;5036067;28;20365;-75
2022/09/07 09:22:16;;;;;;;12.40;9.88;;;;;;;19.43;75.09;101193.03;5036401;28;20033;-76
2022/09/07 09:24:50;;;;;;;13.15;9.82;;;;;;;19.47;73.99;101199.81;5038507;28;20045;-76
2022/09/07 09:27:15;;;;;;;12.25;9.55;;;;;;;19.44;73.80;101204.41;5040209;28;20049;-76
2022/09/07 09:29:41;;;;;;;14.43;9.43;;;;;;;19.44;74.18;101199.13;5036800;28;20059;-76
2022/09/07 09:32:33;;;;;;;12.98;9.23;;;;;;;19.50;74.41;101202.28;5031376;28;20095;-76
2022/09/07 09:35:31;;;;;;;12.20;8.32;;;;;;;19.60;74.16;101204.41;5043451;28;20053;-76
2022/09/07 09:37:57;;;;;;;10.35;7.35;;;;;;;19.65;71.27;101203.19;5036802;28;20396;-76
2022/09/07 09:40:28;;;;;;;10.13;8.20;;;;;;;19.70;72.32;101206.41;5039170;28;20028;-76
2022/09/07 09:43:04;;;;;;;10.15;7.28;;;;;;;19.75;71.90;101203.50;5045313;28;20028;-76
2022/09/07 09:45:34;;;;;;;10.38;6.72;;;;;;;19.80;72.07;101196.16;5037730;28;20220;-76
2022/09/07 09:48:01;;;;;;;9.43;7.13;;;;;;;19.86;72.36;101203.69;5036681;28;20074;-76
2022/09/07 09:50:34;;;;;;;11.52;7.43;;;;;;;19.93;71.00;101204.22;5036558;28;20138;-76
2022/09/07 09:53:00;;;;;;;10.45;7.63;;;;;;;19.96;69.77;101211.13;5037257;28;20040;-76
2022/09/07 09:55:30;;;;;;;10.88;7.40;;;;;;;19.97;69.47;101207.53;5038174;28;20032;-76
2022/09/07 09:57:59;;;;;;;9.63;7.30;;;;;;;20.02;69.72;101203.69;5031541;28;20170;-76
2022/09/07 10:00:26;;;;;;;10.32;6.63;;;;;;;20.12;69.16;101203.09;5024938;28;20537;-76
2022/09/07 10:03:17;;;;;;;9.43;6.38;;;;;;;20.25;69.62;101195.28;5038042;28;20029;-76
2022/09/07 10:05:46;;;;;;;8.55;5.95;;;;;;;20.31;67.93;101194.94;5035153;28;20040;-76
2022/09/07 10:08:27;;;;;;;8.70;6.25;;;;;;;20.39;67.41;101189.16;5035826;28;20030;-76
2022/09/07 10:11:00;;;;;;;;;;;;;;;20.46;69.70;101193.97;5035419;28;20025;-76
2022/09/07 10:13:42;;;;;;;6.97;4.93;;;;;;;20.61;69.55;101191.31;5040360;28;19932;-76
2022/09/07 10:16:10;;;;;;;9.75;6.07;;;;;;;20.63;66.17;101186.78;5042365;28;20112;-76
2022/09/07 10:18:52;;;;;;;8.73;6.28;;;;;;;20.65;67.62;101184.91;5036025;28;20025;-77
2022/09/07 10:21:26;;;;;;;8.32;5.32;;;;;;;20.68;66.58;101182.03;5036540;28;20437;-76
2022/09/07 10:23:58;;;;;;;8.55;5.05;;;;;;;20.72;64.83;101188.84;5041236;28;20021;-76
2022/09/07 10:26:30;;;;;;;8.05;5.03;;;;;;;20.81;64.62;101187.44;5045489;28;20028;-76
2022/09/07 10:29:06;;;;;;;9.70;4.85;;;;;;;20.91;65.03;101187.72;5021290;28;20048;-76
2022/09/07 10:31:34;;;;;;;6.68;4.63;;;;;;;20.97;64.01;101184.69;5041186;28;20393;-76
2022/09/07 10:34:24;;;;;;;6.85;4.53;;;;;;;21.04;65.52;101178.03;5036890;28;20554;-76
2022/09/07 10:37:02;;;;;;;8.52;4.53;;;;;;;21.04;64.77;101183.31;5035797;28;20021;-76
2022/09/07 10:39:35;;;;;;;7.47;4.55;;;;;;;21.01;63.72;101180.84;5038079;28;20415;-76
2022/09/07 10:42:08;;;;;;;7.20;4.22;;;;;;;21.01;63.65;101174.75;5035994;28;20033;-76
2022/09/07 10:44:50;;;;;;;7.40;4.00;;;;;;;20.98;63.34;101173.16;5038527;28;20172;-76
2022/09/07 10:47:21;;;;;;;;;;;;;;;20.99;65.16;101169.56;5037043;28;20033;-76
2022/09/07 10:49:56;;;;;;;6.75;3.88;;;;;;;20.98;64.71;101170.50;5038038;28;20027;-75
2022/09/07 10:52:36;;;;;;;5.63;3.22;;;;;;;21.04;63.90;101172.72;5034265;28;20053;-76
2022/09/07 10:55:18;;;;;;;6.50;3.10;;;;;;;21.15;63.22;101168.56;5036513;28;20108;-76
2022/09/07 10:57:59;;;;;;;5.68;2.75;;;;;;;21.25;62.23;101169.63;5033209;28;20029;-76
2022/09/07 11:00:32;;;;;;;7.32;3.28;;;;;;;21.36;62.11;101167.13;5043147;28;20029;-76
2022/09/07 11:03:16;;;;;;;5.13;2.40;;;;;;;21.46;60.58;101161.22;5034104;28;20483;-76
2022/09/07 11:06:09;;;;;;;9.25;2.42;;;;;;;21.61;62.36;101164.66;5035280;28;20028;-76
2022/09/07 11:08:40;;;;;;;4.78;2.20;;;;;;;21.70;59.04;101157.88;5035953;28;20037;-76
2022/09/07 11:11:35;;;;;;;5.18;1.80;;;;;;;21.80;60.94;101165.09;5041285;28;20032;-76
2022/09/07 11:14:11;;;;;;;4.40;2.00;;;;;;;21.80;60.41;101165.09;5034254;28;20087;-77
2022/09/07 11:16:49;;;;;;;5.78;2.03;;;;;;;21.72;58.16;101161.28;5037998;28;20044;-76
2022/09/07 11:19:21;;;;;;;4.88;2.20;;;;;;;21.70;58.53;101160.53;5037820;28;20021;-76
2022/09/07 11:21:59;;;;;;;4.00;1.92;;;;;;;21.73;59.89;101160.34;5044374;28;20029;-76
2022/09/07 11:24:32;;;;;;;5.32;1.60;;;;;;;21.81;56.92;101161.50;5029111;28;20357;-76
2022/09/07 11:27:06;;;;;;;6.78;1.73;;;;;;;21.87;56.84;101157.59;5040139;28;20032;-76
2022/09/07 11:29:35;;;;;;;5.25;1.67;;;;;;;21.91;55.67;101156.44;5037751;28;20045;-76
2022/09/07 11:32:10;;;;;;;4.28;1.40;;;;;;;21.98;56.21;101157.72;5026795;28;20038;-76
2022/09/07 11:34:49;;;;;;;5.20;1.60;;;;;;;22.06;57.00;101148.38;5033835;28;20036;-76
2022/09/07 11:37:20;;;;;;;3.83;1.50;;;;;;;22.05;54.97;101152.84;5034151;28;20100;-76